Time;durP1;ratioP1;P1;durP2;ratioP2;P2;SDS_P1;SDS_P2;PMS_P1;PMS_P2;Temp;Humidity;BMP_temperature;BMP_pressure;BME280_temperature;BME280_humidity;BME280_pressure;Samples;Min_cycle;Max_cycle;Signal;HPM_P1;HPM_P2
2023/09/01 00:00:12;;;;;;;3.75;1.67;;;16.60;99.90;;;;;;5054290;28;20473;-43
2023/09/01 00:02:41;;;;;;;6.40;2.00;;;16.70;99.90;;;;;;5054534;28;20028;-41
2023/09/01 00:05:07;;;;;;;4.57;2.08;;;16.70;99.90;;;;;;5035441;28;20427;-40
2023/09/01 00:07:33;;;;;;;3.95;2.25;;;16.70;99.90;;;;;;5054749;28;20029;-44
2023/09/01 00:09:59;;;;;;;5.15;2.25;;;16.60;99.90;;;;;;5054668;28;20091;-43
2023/09/01 00:12:26;;;;;;;9.15;2.17;;;16.60;99.90;;;;;;5054619;28;20029;-43
2023/09/01 00:14:51;;;;;;;2.95;1.88;;;16.60;99.90;;;;;;5054201;28;20029;-44
2023/09/01 00:17:17;;;;;;;9.05;2.05;;;16.60;99.90;;;;;;5053311;28;20028;-44
2023/09/01 00:19:43;;;;;;;5.18;2.15;;;16.60;99.90;;;;;;5053885;28;20404;-48
2023/09/01 00:22:09;;;;;;;2.72;2.25;;;16.60;99.90;;;;;;5054496;28;20409;-44
2023/09/01 00:24:34;;;;;;;3.03;2.20;;;16.50;99.90;;;;;;5053385;28;20025;-41
2023/09/01 00:27:00;;;;;;;3.15;2.35;;;16.50;99.90;;;;;;5054276;28;20037;-43
2023/09/01 00:29:27;;;;;;;6.82;2.58;;;16.50;99.90;;;;;;5054440;28;20477;-41
2023/09/01 00:31:53;;;;;;;4.63;2.53;;;16.50;99.90;;;;;;5052449;28;20108;-41
2023/09/01 00:34:18;;;;;;;6.05;2.47;;;16.50;99.90;;;;;;5052259;28;20111;-42
2023/09/01 00:36:44;;;;;;;6.47;2.78;;;16.50;99.90;;;;;;5054343;28;20048;-44
2023/09/01 00:39:10;;;;;;;4.57;2.47;;;16.40;99.90;;;;;;5054188;28;20028;-44
2023/09/01 00:41:36;;;;;;;7.50;2.17;;;16.40;99.90;;;;;;5054199;28;20021;-43
2023/09/01 00:44:04;;;;;;;2.67;2.35;;;16.40;99.90;;;;;;5053420;28;20032;-41
2023/09/01 00:46:31;;;;;;;3.67;1.95;;;16.40;99.90;;;;;;5054047;28;20060;-43
2023/09/01 00:48:57;;;;;;;3.17;2.00;;;16.30;99.90;;;;;;5052694;28;20558;-41
2023/09/01 00:51:25;;;;;;;3.25;1.75;;;16.30;99.90;;;;;;5053925;28;20478;-52
2023/09/01 00:53:51;;;;;;;3.80;2.08;;;16.30;99.90;;;;;;5052949;28;20461;-40
2023/09/01 00:56:19;;;;;;;7.38;2.67;;;16.30;99.90;;;;;;5052582;28;20092;-44
2023/09/01 00:58:44;;;;;;;;;;;16.20;99.90;;;;;;5053219;28;20024;-42
2023/09/01 01:01:10;;;;;;;2.25;2.05;;;16.20;99.90;;;;;;5050098;28;19912;-43
2023/09/01 01:03:36;;;;;;;5.47;2.42;;;16.10;99.90;;;;;;5052350;28;20031;-41
2023/09/01 01:06:24;;;;;;;9.40;2.55;;;16.10;99.90;;;;;;5051612;28;20021;-43
2023/09/01 01:09:11;;;;;;;;;;;16.10;99.90;;;;;;5049657;28;20036;-42
2023/09/01 01:11:39;;;;;;;;;;;16.10;99.90;;;;;;5051038;28;19917;-45
2023/09/01 01:14:11;;;;;;;7.18;2.83;;;16.10;99.90;;;;;;5053514;28;19904;-42
2023/09/01 01:16:37;;;;;;;4.22;2.60;;;16.10;99.90;;;;;;5053007;28;20025;-43
2023/09/01 01:19:18;;;;;;;7.32;2.38;;;16.10;99.90;;;;;;5053135;28;20359;-40
2023/09/01 01:21:46;;;;;;;5.93;2.55;;;16.10;99.90;;;;;;5033535;28;20029;-40
2023/09/01 01:24:11;;;;;;;8.10;2.58;;;16.10;99.90;;;;;;5038173;28;20029;-43
2023/09/01 01:26:37;;;;;;;4.88;2.55;;;16.10;99.90;;;;;;5053157;28;20116;-42
2023/09/01 01:29:03;;;;;;;4.70;2.92;;;16.00;99.90;;;;;;5052440;28;20467;-42
2023/09/01 01:31:28;;;;;;;13.70;3.15;;;16.00;99.90;;;;;;5052795;28;20477;-43
2023/09/01 01:33:59;;;;;;;4.22;2.70;;;15.90;99.90;;;;;;5052223;28;20032;-41
2023/09/01 01:36:37;;;;;;;4.35;2.65;;;15.90;99.90;;;;;;5053226;28;20047;-42
2023/09/01 01:39:11;;;;;;;5.57;2.72;;;15.90;99.90;;;;;;5051765;28;20107;-42
2023/09/01 01:41:59;;;;;;;6.70;3.45;;;15.80;99.90;;;;;;5034849;28;20464;-43
2023/09/01 01:44:37;;;;;;;6.63;3.35;;;15.80;99.90;;;;;;5052826;28;20029;-42
2023/09/01 01:47:05;;;;;;;5.00;3.35;;;15.80;99.90;;;;;;5052229;28;20485;-49
2023/09/01 01:49:31;;;;;;;4.90;2.65;;;15.70;99.90;;;;;;5051737;28;20048;-43
2023/09/01 01:51:58;;;;;;;7.55;3.15;;;15.70;99.90;;;;;;5052866;28;20033;-40
2023/09/01 01:54:24;;;;;;;7.47;2.97;;;15.70;99.90;;;;;;5052887;28;20100;-46
2023/09/01 01:56:49;;;;;;;7.72;3.08;;;15.70;99.90;;;;;;5050891;28;20389;-43
2023/09/01 01:59:16;;;;;;;5.07;3.05;;;15.70;99.90;;;;;;5052273;28;20051;-42
2023/09/01 02:01:42;;;;;;;5.07;3.47;;;15.70;99.90;;;;;;5050705;28;20031;-43
2023/09/01 02:04:07;;;;;;;9.52;3.47;;;15.70;99.90;;;;;;5051520;28;20033;-44
2023/09/01 02:06:33;;;;;;;4.00;2.97;;;15.60;99.90;;;;;;5051288;28;20017;-42
2023/09/01 02:08:59;;;;;;;9.13;3.03;;;15.60;99.90;;;;;;5050821;28;20071;-45
2023/09/01 02:11:24;;;;;;;6.75;2.78;;;15.60;99.90;;;;;;5050712;28;20056;-43
2023/09/01 02:13:50;;;;;;;6.60;3.60;;;15.60;99.90;;;;;;5052699;28;20433;-40
2023/09/01 02:16:15;;;;;;;9.43;3.90;;;15.60;99.90;;;;;;5051356;28;20025;-41
2023/09/01 02:18:42;;;;;;;10.97;4.13;;;15.70;99.90;;;;;;5051097;28;20120;-53
2023/09/01 02:21:08;;;;;;;11.88;4.28;;;15.70;99.90;;;;;;5049448;28;20822;-54
2023/09/01 02:23:34;;;;;;;8.02;3.38;;;15.70;99.90;;;;;;5051943;28;20029;-54
2023/09/01 02:25:59;;;;;;;9.00;3.28;;;15.70;99.90;;;;;;5050051;28;20036;-51
2023/09/01 02:28:25;;;;;;;6.80;3.85;;;15.70;99.90;;;;;;5052158;28;20489;-54
2023/09/01 02:30:51;;;;;;;7.32;3.75;;;15.80;99.90;;;;;;5055139;28;20017;-55
2023/09/01 02:33:18;;;;;;;3.47;2.95;;;15.80;99.90;;;;;;5056550;28;20474;-54
2023/09/01 02:35:44;;;;;;;7.15;3.30;;;15.80;99.90;;;;;;5053560;28;20013;-45
2023/09/01 02:38:11;;;;;;;4.93;3.55;;;15.80;99.90;;;;;;5056049;28;20017;-42
2023/09/01 02:40:38;;;;;;;7.70;3.80;;;15.80;99.90;;;;;;5054892;28;20025;-41
2023/09/01 02:43:04;;;;;;;6.82;3.72;;;15.80;99.90;;;;;;5056694;28;20025;-40
2023/09/01 02:45:31;;;;;;;9.32;3.55;;;15.80;99.90;;;;;;5053526;28;20033;-41
2023/09/01 02:47:57;;;;;;;4.97;3.38;;;15.70;99.90;;;;;;5055556;28;20029;-40
2023/09/01 02:50:22;;;;;;;6.85;3.58;;;15.80;99.90;;;;;;5054216;28;20029;-41
2023/09/01 02:52:48;;;;;;;8.18;3.50;;;15.80;99.90;;;;;;5056076;28;20108;-40
2023/09/01 02:55:17;;;;;;;5.50;3.60;;;15.80;99.90;;;;;;5054309;28;20025;-40
2023/09/01 02:57:43;;;;;;;11.95;3.90;;;15.80;99.90;;;;;;5056089;28;20048;-41
2023/09/01 03:00:18;;;;;;;12.82;3.80;;;15.80;99.90;;;;;;5056102;28;20068;-43
2023/09/01 03:02:44;;;;;;;8.70;3.70;;;15.80;99.90;;;;;;5056340;28;20021;-40
2023/09/01 03:05:10;;;;;;;11.50;4.05;;;15.90;99.90;;;;;;5054280;28;20029;-41
2023/09/01 03:07:40;;;;;;;13.93;3.97;;;15.90;99.90;;;;;;5055892;28;20021;-39
2023/09/01 03:10:07;;;;;;;13.48;4.35;;;15.80;99.90;;;;;;5055680;28;20096;-43
2023/09/01 03:12:39;;;;;;;6.60;3.88;;;15.90;99.90;;;;;;5056090;28;20021;-43
2023/09/01 03:15:11;;;;;;;10.77;4.10;;;15.80;99.90;;;;;;5055171;28;20029;-41
2023/09/01 03:17:37;;;;;;;7.60;3.85;;;15.80;99.90;;;;;;5056011;28;20013;-41
2023/09/01 03:20:05;;;;;;;5.82;3.85;;;15.80;99.90;;;;;;5054184;28;20359;-43
2023/09/01 03:22:30;;;;;;;;;;;15.80;99.90;;;;;;5035950;28;20128;-42
2023/09/01 03:24:56;;;;;;;6.85;3.20;;;15.80;99.90;;;;;;5055555;28;20334;-41
2023/09/01 03:27:21;;;;;;;9.07;4.70;;;15.80;99.90;;;;;;5055127;28;20494;-41
2023/09/01 03:29:54;;;;;;;7.13;3.30;;;15.80;99.90;;;;;;5054824;28;20056;-40
2023/09/01 03:32:20;;;;;;;12.65;4.10;;;15.80;99.90;;;;;;5055729;28;20449;-46
2023/09/01 03:34:46;;;;;;;9.95;4.65;;;15.70;99.90;;;;;;5052359;28;20029;-43
2023/09/01 03:37:12;;;;;;;13.02;4.85;;;15.70;99.90;;;;;;5043175;28;20017;-45
2023/09/01 03:39:38;;;;;;;7.03;4.03;;;15.70;99.90;;;;;;5055238;28;20027;-42
2023/09/01 03:42:04;;;;;;;6.45;3.85;;;15.70;99.90;;;;;;5075328;28;20538;-46
2023/09/01 03:44:29;;;;;;;8.13;3.70;;;15.70;99.90;;;;;;5064044;28;20497;-54
2023/09/01 03:46:55;;;;;;;9.57;3.78;;;15.70;99.90;;;;;;5054955;28;20063;-54
2023/09/01 03:49:21;;;;;;;7.50;3.88;;;15.70;99.90;;;;;;5053897;28;20021;-53
2023/09/01 03:51:47;;;;;;;9.15;4.78;;;15.70;99.90;;;;;;5049171;28;20048;-55
2023/09/01 03:54:12;;;;;;;12.05;3.90;;;15.70;99.90;;;;;;5054389;28;20029;-54
2023/09/01 03:56:38;;;;;;;7.07;4.25;;;15.70;99.90;;;;;;5054921;28;20155;-60
2023/09/01 03:59:04;;;;;;;11.05;4.05;;;15.70;99.90;;;;;;5052279;28;20032;-54
2023/09/01 04:01:30;;;;;;;9.60;4.68;;;15.70;99.90;;;;;;5050184;28;20362;-52
2023/09/01 04:03:56;;;;;;;12.60;4.18;;;15.60;99.90;;;;;;5053363;28;20028;-54
2023/09/01 04:06:22;;;;;;;7.95;4.25;;;15.60;99.90;;;;;;5050003;28;20501;-52
2023/09/01 04:08:47;;;;;;;9.80;3.67;;;15.60;99.90;;;;;;5055050;28;20078;-54
2023/09/01 04:11:13;;;;;;;9.85;4.05;;;15.60;99.90;;;;;;5050948;28;20025;-48
2023/09/01 04:13:39;;;;;;;7.90;3.95;;;15.60;99.90;;;;;;5046094;28;20033;-54
2023/09/01 04:16:04;;;;;;;8.15;4.32;;;15.60;99.90;;;;;;5049599;28;20021;-52
2023/09/01 04:18:32;;;;;;;7.13;4.35;;;15.50;99.90;;;;;;5054489;28;20025;-56
2023/09/01 04:20:57;;;;;;;6.05;3.42;;;15.60;99.90;;;;;;5054356;28;20489;-55
2023/09/01 04:23:23;;;;;;;12.85;4.20;;;15.60;99.90;;;;;;5054440;28;20017;-51
2023/09/01 04:25:49;;;;;;;11.38;4.60;;;15.60;99.90;;;;;;5054319;28;20075;-53
2023/09/01 04:28:16;;;;;;;8.75;4.30;;;15.60;99.90;;;;;;5032095;28;20079;-53
2023/09/01 04:30:47;;;;;;;10.35;3.60;;;15.60;99.90;;;;;;5033000;28;20466;-53
2023/09/01 04:33:13;;;;;;;8.40;4.53;;;15.50;99.90;;;;;;5034429;28;20425;-51
2023/09/01 04:35:39;;;;;;;11.57;4.65;;;15.60;99.90;;;;;;5034258;28;20022;-53
2023/09/01 04:38:05;;;;;;;12.48;4.68;;;15.60;99.90;;;;;;5034593;28;20010;-52
2023/09/01 04:40:31;;;;;;;12.18;4.97;;;15.60;99.90;;;;;;5033294;28;20029;-53
2023/09/01 04:42:57;;;;;;;9.00;4.30;;;15.60;99.90;;;;;;5034236;28;20036;-46
2023/09/01 04:45:25;;;;;;;8.43;4.05;;;15.60;99.90;;;;;;5033531;28;20030;-51
2023/09/01 04:47:51;;;;;;;5.93;3.58;;;15.60;99.90;;;;;;5033913;28;20025;-57
2023/09/01 04:50:18;;;;;;;9.23;3.80;;;15.60;99.90;;;;;;5033774;28;20099;-51
2023/09/01 04:52:43;;;;;;;8.90;4.75;;;15.60;99.90;;;;;;5032851;28;20029;-53
2023/09/01 04:55:09;;;;;;;13.50;4.72;;;15.60;99.90;;;;;;5033766;28;20025;-53
2023/09/01 04:57:38;;;;;;;6.50;3.95;;;15.60;99.90;;;;;;5033615;28;20486;-53
2023/09/01 05:00:15;;;;;;;7.00;4.00;;;15.60;99.90;;;;;;5033738;28;20022;-54
2023/09/01 05:02:41;;;;;;;11.98;4.60;;;15.70;99.90;;;;;;5032831;28;20160;-54
2023/09/01 05:05:07;;;;;;;8.88;4.65;;;15.70;99.90;;;;;;5033849;28;20021;-53
2023/09/01 05:07:33;;;;;;;6.30;4.00;;;15.60;99.90;;;;;;5033981;28;20474;-54
2023/09/01 05:09:58;;;;;;;9.00;3.80;;;15.70;99.90;;;;;;5033536;28;20075;-53
2023/09/01 05:12:24;;;;;;;9.77;4.13;;;15.70;99.90;;;;;;5033543;28;20022;-52
2023/09/01 05:14:50;;;;;;;9.02;4.55;;;15.60;99.90;;;;;;5033888;28;20429;-53
2023/09/01 05:17:15;;;;;;;6.95;4.40;;;15.50;99.90;;;;;;5033581;28;20032;-55
2023/09/01 05:19:41;;;;;;;10.57;4.35;;;15.60;99.90;;;;;;5032788;28;20076;-53
2023/09/01 05:22:06;;;;;;;12.05;4.65;;;15.60;99.90;;;;;;5033486;28;20501;-54
2023/09/01 05:24:32;;;;;;;10.68;4.85;;;15.60;99.90;;;;;;5033267;28;20025;-54
2023/09/01 05:26:58;;;;;;;13.15;4.35;;;15.70;99.90;;;;;;5035310;28;20539;-54
2023/09/01 05:29:24;;;;;;;6.05;3.95;;;15.60;99.90;;;;;;5052476;28;20028;-54
2023/09/01 05:31:50;;;;;;;9.98;4.55;;;15.70;99.90;;;;;;5052412;28;20040;-54
2023/09/01 05:34:16;;;;;;;12.77;3.45;;;15.70;99.90;;;;;;5052661;28;20017;-52
2023/09/01 05:36:41;;;;;;;7.15;4.13;;;15.70;99.90;;;;;;5051319;28;20092;-52
2023/09/01 05:39:26;;;;;;;8.18;4.68;;;15.70;99.90;;;;;;5052316;28;20466;-53
2023/09/01 05:41:51;;;;;;;9.20;4.13;;;15.80;99.90;;;;;;5052184;28;20029;-54
2023/09/01 05:44:17;;;;;;;7.65;4.00;;;15.80;99.90;;;;;;5052415;28;20381;-54
2023/09/01 05:46:42;;;;;;;10.73;4.47;;;15.80;99.90;;;;;;5032668;28;20021;-51
2023/09/01 05:49:08;;;;;;;12.10;4.20;;;15.90;99.90;;;;;;5037415;28;20241;-49
2023/09/01 05:51:34;;;;;;;10.20;4.80;;;15.90;99.90;;;;;;5050124;28;20023;-53
2023/09/01 05:53:59;;;;;;;10.13;5.28;;;15.90;99.90;;;;;;5052130;28;20021;-54
2023/09/01 05:56:25;;;;;;;14.27;4.72;;;15.80;99.90;;;;;;5050099;28;20032;-53
2023/09/01 05:58:50;;;;;;;11.45;5.03;;;15.90;99.90;;;;;;5052030;28;20439;-54
2023/09/01 06:01:16;;;;;;;11.20;4.38;;;15.90;99.90;;;;;;5050665;28;20063;-54
2023/09/01 06:03:42;;;;;;;13.75;4.38;;;15.90;99.90;;;;;;5050763;28;20108;-53
2023/09/01 06:06:08;;;;;;;12.43;4.60;;;15.90;99.90;;;;;;5051190;28;20569;-52
2023/09/01 06:08:33;;;;;;;15.48;5.05;;;15.90;99.90;;;;;;5051381;28;20496;-52
2023/09/01 06:11:09;;;;;;;7.80;3.90;;;15.90;99.90;;;;;;5051717;28;20116;-53
2023/09/01 06:13:35;;;;;;;8.90;4.63;;;16.00;99.90;;;;;;5052116;28;20474;-53
2023/09/01 06:16:04;;;;;;;10.02;4.40;;;16.00;99.90;;;;;;5051176;28;20045;-53
2023/09/01 06:18:30;;;;;;;12.18;5.28;;;16.00;99.90;;;;;;5051689;28;20031;-54
2023/09/01 06:20:56;;;;;;;7.05;4.07;;;16.10;99.90;;;;;;5051711;28;20473;-52
2023/09/01 06:23:22;;;;;;;8.40;4.85;;;16.10;99.90;;;;;;5032444;28;20029;-53
2023/09/01 06:25:48;;;;;;;8.15;4.68;;;16.20;99.90;;;;;;5051819;28;20055;-52
2023/09/01 06:28:14;;;;;;;8.75;4.75;;;16.20;99.90;;;;;;5013686;28;1104369;-52
2023/09/01 06:30:41;;;;;;;12.18;4.93;;;16.20;99.90;;;;;;5051434;28;20082;-55
2023/09/01 06:33:08;;;;;;;10.55;5.80;;;16.20;99.90;;;;;;5051980;28;20413;-54
2023/09/01 06:35:34;;;;;;;17.17;5.33;;;16.20;99.90;;;;;;5052243;28;20021;-53
2023/09/01 06:38:05;;;;;;;8.73;5.15;;;16.20;99.90;;;;;;5051302;28;20816;-57
2023/09/01 06:40:30;;;;;;;10.02;4.80;;;16.20;99.90;;;;;;5050645;28;20071;-55
2023/09/01 06:42:56;;;;;;;6.25;4.07;;;16.20;99.90;;;;;;5050702;28;20051;-53
2023/09/01 06:45:22;;;;;;;10.95;4.63;;;16.30;99.90;;;;;;5051466;28;20025;-53
2023/09/01 06:47:52;;;;;;;6.93;4.72;;;16.30;99.90;;;;;;5052182;28;20100;-53
2023/09/01 06:50:19;;;;;;;6.97;4.57;;;16.30;99.90;;;;;;5028414;28;20116;-49
2023/09/01 06:52:45;;;;;;;12.23;5.03;;;16.30;99.90;;;;;;5045403;28;20105;-47
2023/09/01 06:55:12;;;;;;;8.68;4.07;;;16.30;99.90;;;;;;5052107;28;20025;-53
2023/09/01 06:57:38;;;;;;;9.68;4.55;;;16.30;99.90;;;;;;5051969;28;20462;-53
2023/09/01 07:00:05;;;;;;;9.90;4.10;;;16.30;99.90;;;;;;5052124;28;20465;-54
2023/09/01 07:02:31;;;;;;;5.25;4.18;;;16.40;99.90;;;;;;5051192;28;20033;-55
2023/09/01 07:04:57;;;;;;;12.98;3.75;;;16.40;99.90;;;;;;5052143;28;20033;-52
2023/09/01 07:07:23;;;;;;;10.70;4.18;;;16.40;99.90;;;;;;5050939;28;20116;-53
2023/09/01 07:09:48;;;;;;;10.35;4.43;;;16.40;99.90;;;;;;5051108;28;20024;-54
2023/09/01 07:12:14;;;;;;;9.25;4.43;;;16.40;99.90;;;;;;5052006;28;20029;-53
2023/09/01 07:14:40;;;;;;;11.68;4.18;;;16.40;99.90;;;;;;5053102;28;20022;-54
2023/09/01 07:17:06;;;;;;;9.23;4.13;;;16.40;99.90;;;;;;5053187;28;20067;-47
2023/09/01 07:19:32;;;;;;;12.95;4.28;;;16.40;99.90;;;;;;5052197;28;20057;-54
2023/09/01 07:21:57;;;;;;;7.40;4.88;;;16.40;99.90;;;;;;5052978;28;20032;-53
2023/09/01 07:24:23;;;;;;;10.93;4.20;;;16.50;99.90;;;;;;5055562;28;20025;-53
2023/09/01 07:26:49;;;;;;;10.65;4.63;;;16.50;99.90;;;;;;5033323;28;20029;-52
2023/09/01 07:29:14;;;;;;;11.57;4.68;;;16.50;99.90;;;;;;5032886;28;20032;-57
2023/09/01 07:31:40;;;;;;;12.52;4.60;;;16.60;99.90;;;;;;5053913;28;20036;-54
2023/09/01 07:34:06;;;;;;;6.05;3.45;;;16.50;99.90;;;;;;5051843;28;20082;-53
2023/09/01 07:36:31;;;;;;;7.47;4.20;;;16.50;99.90;;;;;;5052639;28;20033;-54
2023/09/01 07:38:57;;;;;;;11.50;4.38;;;16.50;99.90;;;;;;5055383;28;20418;-53
2023/09/01 07:41:23;;;;;;;7.38;4.32;;;16.60;99.90;;;;;;5054297;28;20029;-53
2023/09/01 07:43:49;;;;;;;9.80;3.70;;;16.60;99.90;;;;;;5053927;28;20025;-53
2023/09/01 07:46:15;;;;;;;11.50;4.03;;;16.70;99.90;;;;;;5053509;28;20492;-53
2023/09/01 07:48:40;;;;;;;8.52;3.70;;;16.80;99.90;;;;;;5053891;28;20104;-53
2023/09/01 07:51:06;;;;;;;5.35;4.10;;;16.70;99.90;;;;;;5051681;28;20033;-51
2023/09/01 07:53:32;;;;;;;5.10;4.32;;;16.60;99.90;;;;;;5051177;28;20486;-54
2023/09/01 07:55:58;;;;;;;6.85;4.15;;;16.60;99.90;;;;;;5054205;28;20029;-53
2023/09/01 07:58:23;;;;;;;5.90;3.70;;;16.60;99.90;;;;;;5054823;28;20025;-54
2023/09/01 08:00:51;;;;;;;6.47;4.00;;;16.60;99.90;;;;;;5054763;28;20025;-52
2023/09/01 08:03:17;;;;;;;3.85;3.35;;;16.70;99.90;;;;;;5054922;28;20492;-53
2023/09/01 08:05:43;;;;;;;7.45;3.55;;;16.70;99.90;;;;;;5054910;28;20029;-54
2023/09/01 08:08:12;;;;;;;9.32;3.78;;;16.70;99.90;;;;;;5054728;28;20017;-52
2023/09/01 08:10:38;;;;;;;5.60;3.92;;;16.70;99.90;;;;;;5054850;28;20555;-54
2023/09/01 08:13:05;;;;;;;8.40;3.38;;;16.80;99.90;;;;;;5054761;28;20021;-52
2023/09/01 08:15:31;;;;;;;5.60;3.85;;;16.80;99.90;;;;;;5054990;28;20393;-53
2023/09/01 08:17:56;;;;;;;9.38;3.72;;;16.80;99.90;;;;;;5054883;28;20079;-53
2023/09/01 08:20:22;;;;;;;5.90;3.10;;;16.80;99.90;;;;;;5054913;28;20021;-54
2023/09/01 08:22:48;;;;;;;10.95;3.83;;;16.80;99.90;;;;;;5054536;28;20104;-54
2023/09/01 08:25:14;;;;;;;9.15;3.33;;;16.80;99.90;;;;;;5054268;28;20025;-53
2023/09/01 08:27:39;;;;;;;6.07;3.80;;;16.80;99.90;;;;;;5053287;28;20405;-54
2023/09/01 08:30:06;;;;;;;7.03;3.28;;;16.80;99.90;;;;;;5054623;28;20088;-53
2023/09/01 08:32:33;;;;;;;10.67;4.67;;;16.90;99.90;;;;;;5054587;28;20057;-54
2023/09/01 08:35:00;;;;;;;5.82;4.00;;;16.90;99.90;;;;;;5054599;28;20029;-54
2023/09/01 08:37:25;;;;;;;8.77;3.03;;;16.90;99.90;;;;;;5054269;28;20021;-54
2023/09/01 08:39:51;;;;;;;6.03;3.70;;;16.90;99.90;;;;;;5056595;28;20048;-54
2023/09/01 08:42:18;;;;;;;6.88;3.88;;;17.00;99.90;;;;;;5074690;28;20032;-56
2023/09/01 08:44:45;;;;;;;10.93;3.97;;;17.00;99.90;;;;;;5074050;28;20025;-54
2023/09/01 08:47:11;;;;;;;5.57;3.03;;;17.00;99.90;;;;;;5074083;28;20039;-52
2023/09/01 08:49:37;;;;;;;6.18;3.10;;;17.00;99.90;;;;;;5074052;28;20027;-54
2023/09/01 08:52:03;;;;;;;11.48;5.07;;;17.00;99.90;;;;;;5073885;28;20473;-53
2023/09/01 08:54:31;;;;;;;15.88;4.18;;;17.00;99.90;;;;;;5074148;28;20056;-54
2023/09/01 08:56:56;;;;;;;;;;;17.00;99.90;;;;;;5074590;28;20021;-51
2023/09/01 08:59:24;;;;;;;7.85;3.53;;;17.10;99.90;;;;;;5073817;28;19991;-55
2023/09/01 09:01:49;;;;;;;8.95;3.30;;;17.10;99.90;;;;;;5073827;28;20450;-54
2023/09/01 09:04:15;;;;;;;7.80;3.50;;;17.10;99.90;;;;;;5073785;28;20052;-53
2023/09/01 09:06:42;;;;;;;5.72;2.95;;;17.10;99.90;;;;;;5073843;28;20097;-51
2023/09/01 09:09:15;;;;;;;8.48;3.17;;;17.10;99.90;;;;;;5073916;28;20059;-53
2023/09/01 09:11:55;;;;;;;7.72;3.28;;;17.20;99.90;;;;;;5073529;28;20028;-55
2023/09/01 09:14:21;;;;;;;4.15;3.42;;;17.20;99.90;;;;;;5070979;28;20024;-41
2023/09/01 09:16:54;;;;;;;6.53;3.22;;;17.30;99.90;;;;;;5048305;28;20033;-40
2023/09/01 09:19:21;;;;;;;6.10;2.90;;;17.30;99.90;;;;;;5041244;28;20033;-42
2023/09/01 09:21:47;;;;;;;5.90;3.10;;;17.20;99.90;;;;;;5050806;28;20025;-39
2023/09/01 09:24:13;;;;;;;7.55;3.88;;;17.20;99.90;;;;;;5050657;28;20017;-44
2023/09/01 09:26:38;;;;;;;7.68;3.40;;;17.20;99.90;;;;;;5049185;28;20386;-42
2023/09/01 09:29:06;;;;;;;9.18;3.75;;;17.20;99.90;;;;;;5025467;28;20441;-42
2023/09/01 09:31:36;;;;;;;6.78;4.07;;;17.20;99.90;;;;;;5033596;28;20068;-40
2023/09/01 09:34:31;;;;;;;10.95;4.43;;;17.20;99.90;;;;;;5048743;28;20032;-42
2023/09/01 09:36:57;;;;;;;5.65;2.80;;;17.20;99.90;;;;;;5025542;28;20052;-43
2023/09/01 09:39:27;;;;;;;5.38;3.78;;;17.20;99.90;;;;;;5051935;28;20013;-43
2023/09/01 09:41:54;;;;;;;8.13;2.85;;;17.20;99.90;;;;;;5050041;28;20580;-43
2023/09/01 09:44:32;;;;;;;7.07;3.92;;;17.20;99.90;;;;;;5042028;28;20109;-44
2023/09/01 09:46:58;;;;;;;9.05;3.55;;;17.20;99.90;;;;;;5053297;28;20389;-41
2023/09/01 09:49:25;;;;;;;12.73;3.47;;;17.30;99.90;;;;;;5049161;28;20440;-44
2023/09/01 09:51:52;;;;;;;5.75;3.08;;;17.30;99.90;;;;;;5052136;28;20496;-40
2023/09/01 09:54:23;;;;;;;7.60;4.10;;;17.30;99.90;;;;;;5052861;28;20524;-42
2023/09/01 09:56:50;;;;;;;6.55;3.05;;;17.20;99.90;;;;;;5053146;28;20385;-39
2023/09/01 09:59:27;;;;;;;6.97;2.90;;;17.10;99.90;;;;;;5052387;28;20024;-40
2023/09/01 10:01:56;;;;;;;7.80;3.83;;;17.10;99.90;;;;;;5052695;28;20025;-45
2023/09/01 10:04:23;;;;;;;8.30;3.38;;;17.10;99.90;;;;;;5052813;28;20033;-43
2023/09/01 10:06:50;;;;;;;6.28;3.97;;;17.10;99.90;;;;;;5052769;28;20032;-43
2023/09/01 10:09:17;;;;;;;9.68;4.50;;;17.20;99.90;;;;;;5052005;28;20033;-41
2023/09/01 10:11:45;;;;;;;10.63;4.13;;;17.20;99.90;;;;;;5052580;28;20108;-39
2023/09/01 10:14:13;;;;;;;;;;;17.30;99.90;;;;;;5052976;28;20023;-43
2023/09/01 10:16:40;;;;;;;6.75;3.55;;;17.30;99.90;;;;;;5052114;28;19913;-41
2023/09/01 10:19:06;;;;;;;7.43;3.63;;;17.40;99.90;;;;;;5052880;28;20093;-40
2023/09/01 10:21:31;;;;;;;7.78;4.18;;;17.50;99.90;;;;;;5052528;28;20033;-41
2023/09/01 10:23:57;;;;;;;9.55;4.03;;;17.50;99.90;;;;;;5052531;28;20037;-45
2023/09/01 10:26:27;;;;;;;9.85;3.67;;;17.60;99.90;;;;;;5016142;28;20017;-40
2023/09/01 10:29:04;;;;;;;8.27;4.22;;;17.60;99.90;;;;;;5039219;28;20448;-45
2023/09/01 10:31:36;;;;;;;7.35;3.97;;;17.60;99.90;;;;;;5044744;28;20033;-44
2023/09/01 10:34:12;;;;;;;10.10;4.03;;;17.70;99.90;;;;;;5051555;28;20074;-40
2023/09/01 10:36:39;;;;;;;8.32;4.38;;;17.80;99.90;;;;;;5049226;28;20619;-38
2023/09/01 10:39:23;;;;;;;12.23;4.22;;;17.90;99.90;;;;;;5051166;28;20064;-41
2023/09/01 10:41:58;;;;;;;6.97;3.65;;;18.00;99.90;;;;;;5049039;28;20037;-43
2023/09/01 10:44:47;;;;;;;7.72;4.60;;;18.10;99.90;;;;;;5052407;28;20067;-45
2023/09/01 10:47:30;;;;;;;7.32;4.53;;;18.10;99.90;;;;;;5051121;28;20489;-45
2023/09/01 10:50:01;;;;;;;7.57;4.35;;;18.10;99.90;;;;;;5051569;28;20497;-41
2023/09/01 10:52:31;;;;;;;11.43;4.80;;;18.20;99.90;;;;;;5055114;28;20044;-41
2023/09/01 10:55:00;;;;;;;9.00;4.32;;;18.20;99.90;;;;;;5057480;28;20029;-44
2023/09/01 10:57:43;;;;;;;11.75;4.93;;;18.30;99.90;;;;;;5055148;28;20021;-46
2023/09/01 11:00:27;;;;;;;5.63;4.60;;;18.30;99.90;;;;;;5050286;28;20132;-47
2023/09/01 11:02:54;;;;;;;6.35;4.15;;;18.50;99.90;;;;;;5052948;28;20033;-40
2023/09/01 11:05:39;;;;;;;10.07;4.32;;;18.50;99.90;;;;;;5054931;28;20021;-39
2023/09/01 11:08:15;;;;;;;10.45;3.92;;;18.50;99.90;;;;;;5036051;28;20036;-41
2023/09/01 11:10:42;;;;;;;10.77;4.27;;;18.60;99.90;;;;;;5026903;28;20033;-46
2023/09/01 11:13:18;;;;;;;7.32;4.45;;;18.50;99.90;;;;;;5055146;28;20496;-45
2023/09/01 11:15:49;;;;;;;5.80;3.95;;;18.50;99.90;;;;;;5053517;28;20111;-41
2023/09/01 11:18:16;;;;;;;12.52;4.28;;;18.40;99.90;;;;;;5054084;28;20033;-42
2023/09/01 11:20:42;;;;;;;11.73;4.20;;;18.40;99.90;;;;;;5053673;28;20381;-52
2023/09/01 11:23:09;;;;;;;11.15;4.57;;;18.50;99.90;;;;;;5052846;28;20029;-41
2023/09/01 11:25:35;;;;;;;10.90;4.78;;;18.50;99.90;;;;;;5051725;28;20032;-42
2023/09/01 11:28:01;;;;;;;9.68;5.18;;;18.60;99.90;;;;;;5035033;28;20394;-43
2023/09/01 11:30:26;;;;;;;12.60;4.70;;;18.70;99.90;;;;;;5054524;28;20036;-45
2023/09/01 11:32:52;;;;;;;7.03;4.65;;;18.60;99.90;;;;;;5048938;28;20382;-44
2023/09/01 11:35:26;;;;;;;17.63;4.93;;;18.60;99.90;;;;;;5041895;28;20029;-45
2023/09/01 11:37:52;;;;;;;7.80;4.28;;;18.60;99.90;;;;;;5047184;28;20027;-44
2023/09/01 11:40:18;;;;;;;7.32;4.43;;;18.70;99.90;;;;;;5057551;28;20469;-42
2023/09/01 11:42:45;;;;;;;10.65;4.43;;;18.70;99.90;;;;;;5055534;28;20029;-42
2023/09/01 11:45:11;;;;;;;7.70;4.70;;;18.60;99.90;;;;;;5051882;28;20031;-43
2023/09/01 11:47:37;;;;;;;11.18;5.00;;;18.60;99.90;;;;;;5051692;28;20473;-41
2023/09/01 11:50:04;;;;;;;7.60;5.00;;;18.70;99.90;;;;;;5052809;28;20025;-41
2023/09/01 11:52:30;;;;;;;8.23;4.60;;;18.70;99.90;;;;;;5051831;28;20397;-41
2023/09/01 11:54:56;;;;;;;6.32;4.50;;;18.70;99.90;;;;;;5050270;28;20018;-43
2023/09/01 11:57:23;;;;;;;8.27;5.03;;;18.80;99.90;;;;;;5044606;28;20544;-44
2023/09/01 11:59:50;;;;;;;7.35;5.30;;;18.80;99.90;;;;;;5054717;28;20155;-42
2023/09/01 12:02:17;;;;;;;3.97;3.50;;;18.80;99.90;;;;;;5054900;28;20163;-50
2023/09/01 12:04:50;;;;;;;8.52;4.35;;;18.80;99.90;;;;;;5054890;28;20032;-40
2023/09/01 12:07:27;;;;;;;7.65;4.60;;;18.80;99.90;;;;;;5054423;28;20098;-46
2023/09/01 12:09:53;;;;;;;13.13;4.65;;;18.80;99.90;;;;;;5055141;28;20037;-50
2023/09/01 12:12:19;;;;;;;7.90;4.25;;;19.00;99.90;;;;;;5051392;28;20036;-42
2023/09/01 12:14:45;;;;;;;9.75;4.32;;;19.00;99.90;;;;;;5051567;28;20021;-41
2023/09/01 12:17:23;;;;;;;10.18;4.88;;;19.00;99.90;;;;;;5054638;28;20478;-42
2023/09/01 12:19:52;;;;;;;4.72;4.13;;;19.00;99.90;;;;;;5049119;28;20478;-42
2023/09/01 12:22:18;;;;;;;8.38;4.68;;;19.10;99.90;;;;;;5052428;28;20074;-43
2023/09/01 12:24:55;;;;;;;9.88;5.10;;;19.10;99.90;;;;;;5053761;28;20041;-44
2023/09/01 12:27:21;;;;;;;6.03;4.45;;;19.10;99.90;;;;;;5052373;28;20045;-42
2023/09/01 12:29:47;;;;;;;5.90;4.35;;;19.10;99.90;;;;;;5050754;28;20032;-41
2023/09/01 12:32:14;;;;;;;8.95;4.70;;;19.20;99.90;;;;;;5046827;28;20029;-44
2023/09/01 12:34:40;;;;;;;6.88;5.47;;;19.30;99.90;;;;;;5054264;28;20040;-42
2023/09/01 12:37:07;;;;;;;8.70;5.33;;;19.30;99.90;;;;;;5053565;28;20028;-46
2023/09/01 12:39:32;;;;;;;6.07;4.55;;;19.30;99.90;;;;;;5049772;28;20791;-41
2023/09/01 12:41:58;;;;;;;9.70;5.20;;;19.30;99.90;;;;;;5051700;28;20068;-41
2023/09/01 12:44:24;;;;;;;7.65;4.60;;;19.30;99.90;;;;;;5048309;28;20385;-41
2023/09/01 12:46:50;;;;;;;8.90;5.28;;;19.30;99.90;;;;;;5054029;28;20040;-43